createdAt,value
2017-04-08T00:00:51.084Z,737.44
2017-04-08T00:01:51.065Z,737.47
2017-04-08T00:02:51.046Z,737.4
2017-04-08T00:03:51.028Z,737.46
2017-04-08T00:04:51.007Z,737.41
2017-04-08T00:05:50.989Z,737.41
2017-04-08T00:06:50.971Z,737.36
2017-04-08T00:07:50.952Z,737.45
2017-04-08T00:08:50.932Z,737.43
2017-04-08T00:09:50.913Z,737.26
2017-04-08T00:10:50.895Z,737.26
2017-04-08T00:11:50.877Z,737.35
2017-04-08T00:12:50.856Z,737.3
2017-04-08T00:13:50.837Z,737.35
2017-04-08T00:14:50.819Z,737.32
2017-04-08T00:15:50.799Z,737.4
2017-04-08T00:16:50.780Z,737.24
2017-04-08T00:17:50.763Z,737.27
2017-04-08T00:18:50.742Z,737.31
2017-04-08T00:19:50.722Z,737.3
2017-04-08T00:20:50.704Z,737.23
2017-04-08T00:21:50.684Z,737.15
2017-04-08T00:22:50.665Z,737.15
2017-04-08T00:23:50.646Z,737.2
2017-04-08T00:24:50.626Z,737.22
2017-04-08T00:25:50.609Z,737.15
2017-04-08T00:26:50.589Z,737.2
2017-04-08T00:27:50.569Z,737.12
2017-04-08T00:28:50.550Z,737.2
2017-04-08T00:29:50.532Z,737.11
2017-04-08T00:30:50.514Z,737.12
2017-04-08T00:31:50.494Z,737.12
2017-04-08T00:32:50.475Z,737.27
2017-04-08T00:33:50.455Z,737.22
2017-04-08T00:34:50.438Z,737.21
2017-04-08T00:35:50.419Z,737.17
2017-04-08T00:36:50.399Z,737.19
2017-04-08T00:37:50.379Z,737.16
2017-04-08T00:38:50.361Z,737.12
2017-04-08T00:39:50.341Z,737.22
2017-04-08T00:40:50.321Z,737.11
2017-04-08T00:41:50.302Z,737.22
2017-04-08T00:42:50.284Z,737.21
2017-04-08T00:43:50.265Z,737.15
2017-04-08T00:44:50.245Z,737.19
2017-04-08T00:45:50.227Z,737.12
2017-04-08T00:46:50.208Z,737.11
2017-04-08T00:47:50.189Z,737.16
2017-04-08T00:48:50.170Z,737.11
2017-04-08T00:49:50.151Z,737.14
2017-04-08T00:50:50.132Z,737.11
2017-04-08T00:51:50.112Z,737.19
2017-04-08T00:52:50.094Z,737.12
2017-04-08T00:53:50.075Z,737.11
2017-04-08T00:54:50.057Z,737.16
2017-04-08T00:55:50.036Z,737.12
2017-04-08T00:56:50.018Z,737.14
2017-04-08T00:57:49.999Z,737.11
2017-04-08T00:58:49.980Z,737.12
2017-04-08T00:59:49.962Z,737.15
2017-04-08T01:00:49.941Z,737.22
2017-04-08T01:01:49.924Z,737.13
2017-04-08T01:02:49.904Z,737.21
2017-04-08T01:03:49.886Z,737.1
2017-04-08T01:04:49.867Z,737.17
2017-04-08T01:05:49.847Z,737.16
2017-04-08T01:06:49.829Z,737.19
2017-04-08T01:07:49.809Z,737.11
2017-04-08T01:08:49.792Z,737.11
2017-04-08T01:09:49.773Z,737.09
2017-04-08T01:10:49.766Z,737.13
2017-04-08T01:11:49.735Z,737.06
2017-04-08T01:12:49.718Z,737.1
2017-04-08T01:13:49.708Z,737.05
2017-04-08T01:14:49.678Z,737.06
2017-04-08T01:15:49.661Z,737.06
2017-04-08T01:16:49.643Z,737.05
2017-04-08T01:17:49.624Z,737.08
2017-04-08T01:18:49.605Z,737.09
2017-04-08T01:19:49.587Z,737.13
2017-04-08T01:20:49.567Z,737.11
2017-04-08T01:21:49.549Z,737.16
2017-04-08T01:22:49.531Z,737.14
2017-04-08T01:23:49.512Z,737.15
2017-04-08T01:24:49.493Z,737.17
2017-04-08T01:25:49.475Z,737.11
2017-04-08T01:26:49.457Z,737.14
2017-04-08T01:27:49.438Z,737.13
2017-04-08T01:28:49.419Z,737.15
2017-04-08T01:29:49.402Z,737.21
2017-04-08T01:30:49.383Z,737.17
2017-04-08T01:31:49.365Z,737.17
2017-04-08T01:32:49.346Z,737.09
2017-04-08T01:33:49.327Z,737.12
2017-04-08T01:34:49.310Z,737.12
2017-04-08T01:35:49.290Z,737.09
2017-04-08T01:36:49.274Z,737.06
2017-04-08T01:37:49.255Z,737.08
2017-04-08T01:38:49.237Z,737.1
2017-04-08T01:39:49.217Z,737.09
2017-04-08T01:40:49.199Z,737.11
2017-04-08T01:41:49.181Z,737.12
2017-04-08T01:42:49.165Z,737.1
2017-04-08T01:43:49.144Z,737.09
2017-04-08T01:44:49.127Z,737.13
2017-04-08T01:45:49.109Z,737.08
2017-04-08T01:46:49.090Z,737.09
2017-04-08T01:47:49.073Z,737.07
2017-04-08T01:48:49.055Z,737.13
2017-04-08T01:49:49.038Z,737.09
2017-04-08T01:50:49.019Z,737.13
2017-04-08T01:51:49.000Z,737.07
2017-04-08T01:52:49.023Z,737.1
2017-04-08T01:53:48.965Z,737.15
2017-04-08T01:54:48.945Z,737.16
2017-04-08T01:55:48.929Z,737.08
2017-04-08T01:56:48.910Z,737.08
2017-04-08T01:57:48.892Z,737.1
2017-04-08T01:58:48.873Z,737.03
2017-04-08T01:59:48.855Z,737.07
2017-04-08T02:00:48.836Z,737.05
2017-04-08T02:01:48.817Z,737.05
2017-04-08T02:02:48.806Z,737.08
2017-04-08T02:03:48.781Z,737.07
2017-04-08T02:04:48.762Z,737.07
2017-04-08T02:05:48.746Z,737.13
2017-04-08T02:06:48.727Z,737.1
2017-04-08T02:07:48.708Z,737.11
2017-04-08T02:08:48.689Z,737.16
2017-04-08T02:09:48.673Z,737.11
2017-04-08T02:10:48.654Z,737.2
2017-04-08T02:11:48.636Z,737.19
2017-04-08T02:12:48.616Z,737.12
2017-04-08T02:13:48.601Z,737.24
2017-04-08T02:14:48.581Z,737.24
2017-04-08T02:15:48.564Z,737.23
2017-04-08T02:16:48.543Z,737.23
2017-04-08T02:17:48.529Z,737.21
2017-04-08T02:18:48.508Z,737.19
2017-04-08T02:19:48.489Z,737.17
2017-04-08T02:20:48.471Z,737.18
2017-04-08T02:21:48.454Z,737.21
2017-04-08T02:22:48.434Z,737.18
2017-04-08T02:23:48.416Z,737.26
2017-04-08T02:24:48.400Z,737.19
2017-04-08T02:25:48.380Z,737.25
2017-04-08T02:26:48.361Z,737.2
2017-04-08T02:27:48.343Z,737.17
2017-04-08T02:28:48.325Z,737.19
2017-04-08T02:29:48.306Z,737.18
2017-04-08T02:30:48.287Z,737.21
2017-04-08T02:31:48.270Z,737.21
2017-04-08T02:32:48.251Z,737.15
2017-04-08T02:33:48.234Z,737.24
2017-04-08T02:34:48.213Z,737.18
2017-04-08T02:35:48.195Z,737.18
2017-04-08T02:36:48.177Z,737.21
2017-04-08T02:37:48.157Z,737.16
2017-04-08T02:38:48.138Z,737.18
2017-04-08T02:39:48.121Z,737.24
2017-04-08T02:40:48.102Z,737.16
2017-04-08T02:41:48.084Z,737.2
2017-04-08T02:42:48.064Z,737.25
2017-04-08T02:43:48.046Z,737.21
2017-04-08T02:44:48.028Z,737.25
2017-04-08T02:45:48.009Z,737.22
2017-04-08T02:46:47.991Z,737.22
2017-04-08T02:47:47.974Z,737.25
2017-04-08T02:48:47.956Z,737.25
2017-04-08T02:49:47.936Z,737.23
2017-04-08T02:50:47.918Z,737.25
2017-04-08T02:51:47.901Z,737.25
2017-04-08T02:52:47.882Z,737.28
2017-04-08T02:53:47.864Z,737.29
2017-04-08T02:54:47.846Z,737.22
2017-04-08T02:55:47.833Z,737.27
2017-04-08T02:56:47.812Z,737.31
2017-04-08T02:57:47.793Z,737.28
2017-04-08T02:58:47.776Z,737.32
2017-04-08T02:59:47.757Z,737.33
2017-04-08T03:00:47.740Z,737.37
2017-04-08T03:01:47.723Z,737.32
2017-04-08T03:02:47.706Z,737.32
2017-04-08T03:03:47.687Z,737.31
2017-04-08T03:04:47.671Z,737.33
2017-04-08T03:05:47.655Z,737.34
2017-04-08T03:06:47.638Z,737.37
2017-04-08T03:07:47.620Z,737.33
2017-04-08T03:08:47.603Z,737.34
2017-04-08T03:09:47.586Z,737.37
2017-04-08T03:10:47.567Z,737.35
2017-04-08T03:11:47.550Z,737.36
2017-04-08T03:12:47.533Z,737.27
2017-04-08T03:13:47.515Z,737.3
2017-04-08T03:14:47.497Z,737.3
2017-04-08T03:15:47.479Z,737.28
2017-04-08T03:16:47.463Z,737.29
2017-04-08T03:17:47.448Z,737.28
2017-04-08T03:18:47.426Z,737.34
2017-04-08T03:19:47.409Z,737.3
2017-04-08T03:20:47.392Z,737.32
2017-04-08T03:21:47.375Z,737.32
2017-04-08T03:22:47.358Z,737.34
2017-04-08T03:23:47.341Z,737.34
2017-04-08T03:24:47.324Z,737.26
2017-04-08T03:25:47.306Z,737.3
2017-04-08T03:26:47.289Z,737.34
2017-04-08T03:27:47.271Z,737.29
2017-04-08T03:28:47.256Z,737.35
2017-04-08T03:29:47.237Z,737.32
2017-04-08T03:30:47.220Z,737.37
2017-04-08T03:31:47.203Z,737.34
2017-04-08T03:32:47.185Z,737.35
2017-04-08T03:33:47.167Z,737.3
2017-04-08T03:34:47.150Z,737.26
2017-04-08T03:35:47.132Z,737.31
2017-04-08T03:36:47.114Z,737.31
2017-04-08T03:37:47.096Z,737.27
2017-04-08T03:38:47.082Z,737.25
2017-04-08T03:39:47.061Z,737.3
2017-04-08T03:40:47.045Z,737.3
2017-04-08T03:41:47.028Z,737.29
2017-04-08T03:42:47.010Z,737.25
2017-04-08T03:43:46.993Z,737.3
2017-04-08T03:44:46.976Z,737.27
2017-04-08T03:45:46.958Z,737.26
2017-04-08T03:46:46.941Z,737.27
2017-04-08T03:47:46.924Z,737.22
2017-04-08T03:48:46.907Z,737.28
2017-04-08T03:49:46.890Z,737.29
2017-04-08T03:50:46.872Z,737.29
2017-04-08T03:51:46.854Z,737.3
2017-04-08T03:52:46.837Z,737.28
2017-04-08T03:53:46.823Z,737.26
2017-04-08T03:54:46.803Z,737.29
2017-04-08T03:55:46.785Z,737.3
2017-04-08T03:56:46.769Z,737.3
2017-04-08T03:57:46.752Z,737.35
2017-04-08T03:58:46.734Z,737.34
2017-04-08T03:59:46.717Z,737.35
2017-04-08T04:00:46.700Z,737.34
2017-04-08T04:01:46.683Z,737.32
2017-04-08T04:02:46.666Z,737.3
2017-04-08T04:03:46.649Z,737.36
2017-04-08T04:04:46.630Z,737.32
2017-04-08T04:05:46.612Z,737.36
2017-04-08T04:06:46.595Z,737.36
2017-04-08T04:07:46.579Z,737.36
2017-04-08T04:08:46.562Z,737.35
2017-04-08T04:09:46.544Z,737.37
2017-04-08T04:10:46.526Z,737.39
2017-04-08T04:11:46.510Z,737.41
2017-04-08T04:12:46.491Z,737.37
2017-04-08T04:13:46.474Z,737.36
2017-04-08T04:14:46.457Z,737.4
2017-04-08T04:15:46.441Z,737.35
2017-04-08T04:16:46.422Z,737.36
2017-04-08T04:17:46.406Z,737.41
2017-04-08T04:18:46.389Z,737.4
2017-04-08T04:19:46.373Z,737.43
2017-04-08T04:20:46.354Z,737.44
2017-04-08T04:21:46.338Z,737.47
2017-04-08T04:22:46.321Z,737.45
2017-04-08T04:23:46.303Z,737.47
2017-04-08T04:24:46.287Z,737.45
2017-04-08T04:25:46.270Z,737.49
2017-04-08T04:26:46.252Z,737.45
2017-04-08T04:27:46.235Z,737.46
2017-04-08T04:28:46.218Z,737.48
2017-04-08T04:29:46.201Z,737.46
2017-04-08T04:30:46.182Z,737.47
2017-04-08T04:31:46.195Z,737.47
2017-04-08T04:32:46.147Z,737.47
2017-04-08T04:33:46.130Z,737.48
2017-04-08T04:34:46.113Z,737.44
2017-04-08T04:35:46.095Z,737.49
2017-04-08T04:36:46.079Z,737.45
2017-04-08T04:37:46.062Z,737.5
2017-04-08T04:38:46.044Z,737.47
2017-04-08T04:39:46.027Z,737.45
2017-04-08T04:40:46.010Z,737.47
2017-04-08T04:41:45.992Z,737.45
2017-04-08T04:42:45.975Z,737.5
2017-04-08T04:43:45.956Z,737.48
2017-04-08T04:44:45.940Z,737.45
2017-04-08T04:45:45.921Z,737.51
2017-04-08T04:46:45.904Z,737.49
2017-04-08T04:47:45.888Z,737.47
2017-04-08T04:48:45.870Z,737.49
2017-04-08T04:49:45.852Z,737.49
2017-04-08T04:50:45.835Z,737.51
2017-04-08T04:51:45.819Z,737.51
2017-04-08T04:52:45.802Z,737.52
2017-04-08T04:53:45.783Z,737.52
2017-04-08T04:54:45.765Z,737.54
2017-04-08T04:55:45.749Z,737.55
2017-04-08T04:56:45.730Z,737.53
2017-04-08T04:57:45.714Z,737.53
2017-04-08T04:58:45.696Z,737.55
2017-04-08T04:59:45.679Z,737.62
2017-04-08T05:00:45.661Z,737.6
2017-04-08T05:01:45.645Z,737.6
2017-04-08T05:02:45.628Z,737.62
2017-04-08T05:03:45.611Z,737.64
2017-04-08T05:04:45.595Z,737.69
2017-04-08T05:05:45.578Z,737.7
2017-04-08T05:06:45.561Z,737.7
2017-04-08T05:07:45.543Z,737.73
2017-04-08T05:08:45.526Z,737.69
2017-04-08T05:09:45.512Z,737.72
2017-04-08T05:10:45.496Z,737.68
2017-04-08T05:11:45.477Z,737.75
2017-04-08T05:12:45.462Z,737.72
2017-04-08T05:13:45.445Z,737.74
2017-04-08T05:14:45.429Z,737.77
2017-04-08T05:15:45.412Z,737.75
2017-04-08T05:16:45.398Z,737.73
2017-04-08T05:17:45.383Z,737.76
2017-04-08T05:18:45.364Z,737.77
2017-04-08T05:19:45.349Z,737.79
2017-04-08T05:20:45.335Z,737.81
2017-04-08T05:21:45.319Z,737.82
2017-04-08T05:22:45.303Z,737.83
2017-04-08T05:23:45.287Z,737.84
2017-04-08T05:24:45.271Z,737.88
2017-04-08T05:25:45.256Z,737.86
2017-04-08T05:26:45.240Z,737.83
2017-04-08T05:27:45.226Z,737.87
2017-04-08T05:28:45.211Z,737.79
2017-04-08T05:29:45.201Z,737.85
2017-04-08T05:30:45.179Z,737.85
2017-04-08T05:31:45.164Z,737.83
2017-04-08T05:32:45.148Z,737.87
2017-04-08T05:33:45.132Z,737.85
2017-04-08T05:34:45.119Z,737.87
2017-04-08T05:35:45.103Z,737.9
2017-04-08T05:36:45.087Z,737.89
2017-04-08T05:37:45.072Z,737.86
2017-04-08T05:38:45.059Z,737.86
2017-04-08T05:39:45.043Z,737.84
2017-04-08T05:40:45.027Z,737.84
2017-04-08T05:41:45.013Z,737.84
2017-04-08T05:42:45.000Z,737.84
2017-04-08T05:43:44.985Z,737.89
2017-04-08T05:44:44.969Z,737.92
2017-04-08T05:45:44.953Z,737.88
2017-04-08T05:46:44.937Z,737.88
2017-04-08T05:47:44.922Z,737.93
2017-04-08T05:48:44.908Z,737.93
2017-04-08T05:49:44.892Z,737.89
2017-04-08T05:50:44.877Z,737.85
2017-04-08T05:51:44.861Z,737.92
2017-04-08T05:52:44.846Z,737.92
2017-04-08T05:53:44.831Z,737.91
2017-04-08T05:54:44.814Z,737.94
2017-04-08T05:55:44.797Z,737.92
2017-04-08T05:56:44.782Z,737.92
2017-04-08T05:57:44.766Z,737.94
2017-04-08T05:58:44.751Z,737.97
2017-04-08T05:59:44.735Z,737.96
2017-04-08T06:00:44.721Z,737.94
2017-04-08T06:01:44.706Z,737.96
2017-04-08T06:02:44.691Z,737.98
2017-04-08T06:03:44.675Z,737.95
2017-04-08T06:04:44.660Z,737.95
2017-04-08T06:05:44.645Z,737.97
2017-04-08T06:06:44.629Z,737.96
2017-04-08T06:07:44.615Z,737.98
2017-04-08T06:08:44.600Z,738
2017-04-08T06:09:44.583Z,738.01
2017-04-08T06:10:44.570Z,737.99
2017-04-08T06:11:44.555Z,738
2017-04-08T06:12:44.541Z,737.97
2017-04-08T06:13:44.526Z,738.01
2017-04-08T06:14:44.512Z,738.05
2017-04-08T06:15:44.497Z,738.01
2017-04-08T06:16:44.482Z,738.02
2017-04-08T06:17:44.469Z,737.97
2017-04-08T06:18:44.455Z,738
2017-04-08T06:19:44.441Z,738.03
2017-04-08T06:20:44.425Z,738.04
2017-04-08T06:21:44.412Z,738.05
2017-04-08T06:22:44.403Z,738.1
2017-04-08T06:23:44.384Z,738.11
2017-04-08T06:24:44.370Z,738.13
2017-04-08T06:25:44.358Z,738.06
2017-04-08T06:26:44.344Z,738.09
2017-04-08T06:27:44.330Z,738.11
2017-04-08T06:28:44.317Z,738.09
2017-04-08T06:29:44.303Z,738.13
2017-04-08T06:30:44.291Z,738.13
2017-04-08T06:31:44.278Z,738.13
2017-04-08T06:32:44.263Z,738.08
2017-04-08T06:33:44.250Z,738.14
2017-04-08T06:34:44.239Z,738.13
2017-04-08T06:35:44.225Z,738.14
2017-04-08T06:36:44.212Z,738.15
2017-04-08T06:37:44.199Z,738.14
2017-04-08T06:38:44.186Z,738.15
2017-04-08T06:39:44.174Z,738.19
2017-04-08T06:40:44.163Z,738.2
2017-04-08T06:41:44.150Z,738.24
2017-04-08T06:42:44.136Z,738.22
2017-04-08T06:43:44.126Z,738.15
2017-04-08T06:44:44.113Z,738.18
2017-04-08T06:45:44.101Z,738.22
2017-04-08T06:46:44.088Z,738.24
2017-04-08T06:47:44.076Z,738.33
2017-04-08T06:48:44.063Z,738.29
2017-04-08T06:49:44.052Z,738.26
2017-04-08T06:50:44.041Z,738.28
2017-04-08T06:51:44.027Z,738.29
2017-04-08T06:52:44.014Z,738.35
2017-04-08T06:53:44.003Z,738.28
2017-04-08T06:54:43.990Z,738.32
2017-04-08T06:55:43.979Z,738.32
2017-04-08T06:56:43.967Z,738.34
2017-04-08T06:57:43.983Z,738.32
2017-04-08T06:58:43.944Z,738.33
2017-04-08T06:59:43.932Z,738.38
2017-04-08T07:00:43.919Z,738.42
2017-04-08T07:01:43.909Z,738.39
2017-04-08T07:02:43.897Z,738.39
2017-04-08T07:03:43.885Z,738.39
2017-04-08T07:04:43.878Z,738.39
2017-04-08T07:05:43.860Z,738.42
2017-04-08T07:06:43.850Z,738.43
2017-04-08T07:07:43.839Z,738.41
2017-04-08T07:08:43.828Z,738.43
2017-04-08T07:09:43.817Z,738.46
2017-04-08T07:10:43.805Z,738.43
2017-04-08T07:11:43.794Z,738.46
2017-04-08T07:12:43.783Z,738.45
2017-04-08T07:13:43.774Z,738.46
2017-04-08T07:14:43.763Z,738.48
2017-04-08T07:15:43.751Z,738.44
2017-04-08T07:16:43.740Z,738.44
2017-04-08T07:17:43.728Z,738.45
2017-04-08T07:18:43.718Z,738.5
2017-04-08T07:19:43.708Z,738.52
2017-04-08T07:20:43.695Z,738.51
2017-04-08T07:21:43.686Z,738.53
2017-04-08T07:22:43.674Z,738.5
2017-04-08T07:23:43.663Z,738.55
2017-04-08T07:24:43.652Z,738.51
2017-04-08T07:25:43.642Z,738.51
2017-04-08T07:26:43.632Z,738.56
2017-04-08T07:27:43.621Z,738.49
2017-04-08T07:28:43.610Z,738.53
2017-04-08T07:29:43.601Z,738.53
2017-04-08T07:30:43.589Z,738.53
2017-04-08T07:31:43.578Z,738.55
2017-04-08T07:32:43.568Z,738.54
2017-04-08T07:33:43.556Z,738.6
2017-04-08T07:34:43.547Z,738.55
2017-04-08T07:35:43.537Z,738.57
2017-04-08T07:36:43.526Z,738.57
2017-04-08T07:37:43.517Z,738.54
2017-04-08T07:38:43.505Z,738.58
2017-04-08T07:39:43.496Z,738.56
2017-04-08T07:40:43.488Z,738.58
2017-04-08T07:41:43.475Z,738.58
2017-04-08T07:42:43.466Z,738.59
2017-04-08T07:43:43.456Z,738.59
2017-04-08T07:44:43.445Z,738.61
2017-04-08T07:45:43.436Z,738.64
2017-04-08T07:46:43.427Z,738.64
2017-04-08T07:47:43.419Z,738.62
2017-04-08T07:48:43.412Z,738.59
2017-04-08T07:49:43.398Z,738.63
2017-04-08T07:50:43.387Z,738.66
2017-04-08T07:51:43.377Z,738.62
2017-04-08T07:52:43.367Z,738.63
2017-04-08T07:53:43.359Z,738.67
2017-04-08T07:54:43.348Z,738.67
2017-04-08T07:55:43.337Z,738.72
2017-04-08T07:56:43.328Z,738.69
2017-04-08T07:57:43.319Z,738.67
2017-04-08T07:58:43.309Z,738.69
2017-04-08T07:59:43.298Z,738.71
2017-04-08T08:00:43.290Z,738.7
2017-04-08T08:01:43.280Z,738.7
2017-04-08T08:02:43.270Z,738.71
2017-04-08T08:03:43.261Z,738.73
2017-04-08T08:04:43.252Z,738.76
2017-04-08T08:05:43.243Z,738.78
2017-04-08T08:06:43.233Z,738.76
2017-04-08T08:07:43.224Z,738.75
2017-04-08T08:08:43.214Z,738.77
2017-04-08T08:09:43.205Z,738.73
2017-04-08T08:10:43.194Z,738.77
2017-04-08T08:11:43.186Z,738.79
2017-04-08T08:12:43.178Z,738.81
2017-04-08T08:13:43.170Z,738.8
2017-04-08T08:14:43.159Z,738.83
2017-04-08T08:15:43.153Z,738.82
2017-04-08T08:16:43.145Z,738.87
2017-04-08T08:17:43.135Z,738.89
2017-04-08T08:18:43.128Z,738.88
2017-04-08T08:19:43.121Z,738.89
2017-04-08T08:20:43.115Z,738.89
2017-04-08T08:21:43.106Z,738.92
2017-04-08T08:22:43.099Z,738.92
2017-04-08T08:23:43.092Z,738.91
2017-04-08T08:24:43.085Z,738.98
2017-04-08T08:25:43.079Z,738.94
2017-04-08T08:26:43.072Z,738.95
2017-04-08T08:27:43.067Z,738.98
2017-04-08T08:28:43.060Z,738.96
2017-04-08T08:29:43.054Z,738.94
2017-04-08T08:30:43.047Z,738.99
2017-04-08T08:31:43.041Z,738.99
2017-04-08T08:32:43.035Z,738.97
2017-04-08T08:33:43.028Z,738.92
2017-04-08T08:34:43.022Z,738.97
2017-04-08T08:35:43.016Z,738.98
2017-04-08T08:36:43.009Z,738.99
2017-04-08T08:37:43.005Z,738.95
2017-04-08T08:38:43.000Z,738.95
2017-04-08T08:39:42.993Z,738.98
2017-04-08T08:40:42.986Z,738.97
2017-04-08T08:41:42.981Z,738.95
2017-04-08T08:42:42.975Z,738.97
2017-04-08T08:43:42.968Z,738.94
2017-04-08T08:44:42.962Z,738.97
2017-04-08T08:45:42.956Z,738.99
2017-04-08T08:46:42.947Z,739.01
2017-04-08T08:47:42.942Z,739.04
2017-04-08T08:48:42.943Z,739.07
2017-04-08T08:49:42.929Z,739.11
2017-04-08T08:50:42.921Z,739.07
2017-04-08T08:51:42.916Z,739.08
2017-04-08T08:52:42.910Z,739.03
2017-04-08T08:53:42.903Z,739.1
2017-04-08T08:54:42.896Z,739.14
2017-04-08T08:55:42.891Z,739.1
2017-04-08T08:56:42.884Z,739.12
2017-04-08T08:57:42.879Z,739.12
2017-04-08T08:58:42.872Z,739.12
2017-04-08T08:59:42.868Z,739.12
2017-04-08T09:00:42.861Z,739.17
2017-04-08T09:01:42.855Z,739.19
2017-04-08T09:02:42.850Z,739.19
2017-04-08T09:03:42.846Z,739.18
2017-04-08T09:04:42.841Z,739.18
2017-04-08T09:05:42.834Z,739.16
2017-04-08T09:06:42.829Z,739.22
2017-04-08T09:07:42.826Z,739.2
2017-04-08T09:08:42.819Z,739.24
2017-04-08T09:09:42.815Z,739.22
2017-04-08T09:10:42.810Z,739.19
2017-04-08T09:11:42.805Z,739.2
2017-04-08T09:12:42.800Z,739.22
2017-04-08T09:13:42.796Z,739.19
2017-04-08T09:14:42.791Z,739.19
2017-04-08T09:15:42.788Z,739.2
2017-04-08T09:16:42.781Z,739.19
2017-04-08T09:17:42.777Z,739.2
2017-04-08T09:18:42.774Z,739.22
2017-04-08T09:19:42.767Z,739.21
2017-04-08T09:20:42.764Z,739.21
2017-04-08T09:21:42.758Z,739.18
2017-04-08T09:22:42.754Z,739.16
2017-04-08T09:23:42.749Z,739.21
2017-04-08T09:24:42.743Z,739.21
2017-04-08T09:25:42.739Z,739.2
2017-04-08T09:26:42.737Z,739.26
2017-04-08T09:27:42.728Z,739.22
2017-04-08T09:28:42.722Z,739.24
2017-04-08T09:29:42.716Z,739.23
2017-04-08T09:30:42.709Z,739.24
2017-04-08T09:31:42.704Z,739.26
2017-04-08T09:32:42.699Z,739.29
2017-04-08T09:33:42.694Z,739.3
2017-04-08T09:34:42.687Z,739.32
2017-04-08T09:35:42.682Z,739.38
2017-04-08T09:36:42.685Z,739.35
2017-04-08T09:37:42.671Z,739.24
2017-04-08T09:38:42.664Z,739.3
2017-04-08T09:39:42.658Z,739.33
2017-04-08T09:40:42.652Z,739.34
2017-04-08T09:41:42.646Z,739.36
2017-04-08T09:42:42.642Z,739.39
2017-04-08T09:43:42.635Z,739.37
2017-04-08T09:44:42.630Z,739.38
2017-04-08T09:45:42.624Z,739.41
2017-04-08T09:46:42.619Z,739.4
2017-04-08T09:47:42.615Z,739.41
2017-04-08T09:48:42.610Z,739.46
2017-04-08T09:49:42.603Z,739.44
2017-04-08T09:50:42.598Z,739.44
2017-04-08T09:51:42.594Z,739.44
2017-04-08T09:52:42.588Z,739.47
2017-04-08T09:53:42.585Z,739.47
2017-04-08T09:54:42.581Z,739.44
2017-04-08T09:55:42.575Z,739.45
2017-04-08T09:56:42.571Z,739.43
2017-04-08T09:57:42.567Z,739.48
2017-04-08T09:58:42.564Z,739.49
2017-04-08T09:59:42.562Z,739.49
2017-04-08T10:00:42.555Z,739.49
2017-04-08T10:01:42.551Z,739.47
2017-04-08T10:02:42.548Z,739.54
2017-04-08T10:03:42.541Z,739.53
2017-04-08T10:04:42.539Z,739.58
2017-04-08T10:05:42.535Z,739.57
2017-04-08T10:06:42.531Z,739.6
2017-04-08T10:07:42.526Z,739.58
2017-04-08T10:08:42.553Z,739.55
2017-04-08T10:09:42.520Z,739.59
2017-04-08T10:10:42.513Z,739.57
2017-04-08T10:11:42.510Z,739.57
2017-04-08T10:12:42.507Z,739.56
2017-04-08T10:13:42.503Z,739.58
2017-04-08T10:14:42.502Z,739.59
2017-04-08T10:15:42.495Z,739.61
2017-04-08T10:16:42.492Z,739.6
2017-04-08T10:17:42.487Z,739.59
2017-04-08T10:18:42.483Z,739.61
2017-04-08T10:19:42.479Z,739.57
2017-04-08T10:20:42.476Z,739.62
2017-04-08T10:21:42.472Z,739.62
2017-04-08T10:22:42.468Z,739.64
2017-04-08T10:23:42.465Z,739.61
2017-04-08T10:24:42.461Z,739.66
2017-04-08T10:25:42.457Z,739.64
2017-04-08T10:26:42.454Z,739.66
2017-04-08T10:27:42.449Z,739.66
2017-04-08T10:28:42.446Z,739.62
2017-04-08T10:29:42.443Z,739.63
2017-04-08T10:30:42.438Z,739.61
2017-04-08T10:31:42.436Z,739.6
2017-04-08T10:32:42.430Z,739.58
2017-04-08T10:33:42.428Z,739.58
2017-04-08T10:34:42.425Z,739.55
2017-04-08T10:35:42.420Z,739.61
2017-04-08T10:36:42.417Z,739.6
2017-04-08T10:37:42.413Z,739.59
2017-04-08T10:38:42.411Z,739.55
2017-04-08T10:39:42.407Z,739.59
2017-04-08T10:40:42.402Z,739.54
2017-04-08T10:41:42.396Z,739.57
2017-04-08T10:42:42.394Z,739.59
2017-04-08T10:43:42.388Z,739.58
2017-04-08T10:44:42.385Z,739.55
2017-04-08T10:45:42.380Z,739.64
2017-04-08T10:46:42.375Z,739.61
2017-04-08T10:47:42.370Z,739.59
2017-04-08T10:48:42.366Z,739.64
2017-04-08T10:49:42.362Z,739.66
2017-04-08T10:50:42.357Z,739.65
2017-04-08T10:51:42.353Z,739.63
2017-04-08T10:52:42.351Z,739.63
2017-04-08T10:53:42.343Z,739.61
2017-04-08T10:54:42.339Z,739.64
2017-04-08T10:55:42.334Z,739.61
2017-04-08T10:56:42.332Z,739.59
2017-04-08T10:57:42.328Z,739.62
2017-04-08T10:58:42.322Z,739.59
2017-04-08T10:59:42.318Z,739.62
2017-04-08T11:00:42.314Z,739.6
2017-04-08T11:01:42.310Z,739.62
2017-04-08T11:02:42.305Z,739.61
2017-04-08T11:03:42.301Z,739.62
2017-04-08T11:04:42.297Z,739.62
2017-04-08T11:05:42.494Z,739.63
2017-04-08T11:06:42.288Z,739.6
2017-04-08T11:07:42.284Z,739.63
2017-04-08T11:08:42.278Z,739.6
2017-04-08T11:09:42.273Z,739.59
2017-04-08T11:10:42.472Z,739.59
2017-04-08T11:11:42.467Z,739.58
2017-04-08T11:12:42.262Z,739.64
2017-04-08T11:13:42.256Z,739.61
2017-04-08T11:14:42.252Z,739.55
2017-04-08T11:15:42.249Z,739.61
2017-04-08T11:16:42.243Z,739.65
2017-04-08T11:17:42.238Z,739.59
2017-04-08T11:18:42.233Z,739.65
2017-04-08T11:19:42.235Z,739.65
2017-04-08T11:20:42.223Z,739.62
2017-04-08T11:21:42.219Z,739.65
2017-04-08T11:22:42.217Z,739.62
2017-04-08T11:23:42.212Z,739.6
2017-04-08T11:24:42.210Z,739.6
2017-04-08T11:25:42.203Z,739.6
2017-04-08T11:26:42.199Z,739.63
2017-04-08T11:27:42.194Z,739.61
2017-04-08T11:28:42.190Z,739.65
2017-04-08T11:29:42.190Z,739.65
2017-04-08T11:30:42.180Z,739.67
2017-04-08T11:31:42.175Z,739.65
2017-04-08T11:32:42.471Z,739.66
2017-04-08T11:33:42.168Z,739.66
2017-04-08T11:34:42.162Z,739.7
2017-04-08T11:35:42.158Z,739.7
2017-04-08T11:36:42.154Z,739.71
2017-04-08T11:37:42.149Z,739.75
2017-04-08T11:38:42.143Z,739.71
2017-04-08T11:39:42.140Z,739.73
2017-04-08T11:40:42.135Z,739.74
2017-04-08T11:41:42.130Z,739.77
2017-04-08T11:42:42.125Z,739.74
2017-04-08T11:43:42.122Z,739.71
2017-04-08T11:44:42.118Z,739.77
2017-04-08T11:45:42.113Z,739.75
2017-04-08T11:46:42.108Z,739.72
2017-04-08T11:47:42.105Z,739.73
2017-04-08T11:48:42.101Z,739.74
2017-04-08T11:49:42.096Z,739.72
2017-04-08T11:50:42.093Z,739.75
2017-04-08T11:51:42.089Z,739.77
2017-04-08T11:52:42.085Z,739.75
2017-04-08T11:53:42.080Z,739.8
2017-04-08T11:54:42.077Z,739.74
2017-04-08T11:55:42.072Z,739.7
2017-04-08T11:56:42.068Z,739.74
2017-04-08T11:57:42.063Z,739.7
2017-04-08T11:58:42.059Z,739.74
2017-04-08T11:59:42.055Z,739.78
2017-04-08T12:00:42.048Z,739.79
2017-04-08T12:01:42.044Z,739.76
2017-04-08T12:02:42.039Z,739.73
2017-04-08T12:03:42.035Z,739.75
2017-04-08T12:04:42.030Z,739.72
2017-04-08T12:05:42.025Z,739.7
2017-04-08T12:06:42.019Z,739.73
2017-04-08T12:07:42.014Z,739.73
2017-04-08T12:08:42.009Z,739.74
2017-04-08T12:09:42.004Z,739.72
2017-04-08T12:10:42.035Z,739.74
2017-04-08T12:11:41.993Z,739.76
2017-04-08T12:12:41.988Z,739.79
2017-04-08T12:13:42.285Z,739.77
2017-04-08T12:14:41.979Z,739.81
2017-04-08T12:15:41.972Z,739.8
2017-04-08T12:16:41.967Z,739.75
2017-04-08T12:17:41.963Z,739.77
2017-04-08T12:18:41.957Z,739.77
2017-04-08T12:19:41.952Z,739.77
2017-04-08T12:20:41.947Z,739.78
2017-04-08T12:21:41.942Z,739.76
2017-04-08T12:22:41.934Z,739.73
2017-04-08T12:23:41.930Z,739.74
2017-04-08T12:24:41.923Z,739.74
2017-04-08T12:25:41.921Z,739.77
2017-04-08T12:26:41.912Z,739.76
2017-04-08T12:27:41.906Z,739.72
2017-04-08T12:28:41.899Z,739.74
2017-04-08T12:29:41.893Z,739.72
2017-04-08T12:30:41.885Z,739.76
2017-04-08T12:31:41.880Z,739.74